Time;durP1;ratioP1;P1;durP2;ratioP2;P2;SDS_P1;SDS_P2;PMS_P1;PMS_P2;Temp;Humidity;BMP_temperature;BMP_pressure;BME280_temperature;BME280_humidity;BME280_pressure;Samples;Min_cycle;Max_cycle;Signal;HPM_P1;HPM_P2
2021/11/16 01:51:44;;;;;;;95.07;27.07;;;;;;;;;;6129678;23;20469;-88
2021/11/16 01:54:51;;;;;;;100.50;25.57;;;;;;;;;;6187406;23;20159;-90
2021/11/16 01:57:57;;;;;;;78.17;23.00;;;;;;;;;;6188174;23;20176;-91
2021/11/16 02:01:03;;;;;;;107.87;23.43;;;;;;;;;;6186002;23;20229;-92
2021/11/16 02:04:09;;;;;;;75.20;23.50;;;;;;;;;;6182283;23;20179;-92
2021/11/16 02:07:15;;;;;;;80.97;25.03;;;;;;;;;;6184050;23;20211;-89
2021/11/16 02:10:23;;;;;;;119.23;23.03;;;;;;;;;;6184297;23;20574;-90
2021/11/16 02:13:28;;;;;;;88.27;22.27;;;;;;;;;;6183941;23;20170;-92
2021/11/16 02:16:35;;;;;;;94.57;22.47;;;;;;;;;;6184086;23;20207;-90
2021/11/16 02:19:41;;;;;;;80.47;21.80;;;;;;;;;;6183963;23;20223;-89
2021/11/16 02:22:48;;;;;;;80.67;22.23;;;;;;;;;;6182636;23;20172;-90
2021/11/16 02:25:54;;;;;;;81.57;22.57;;;;;;;;;;6182752;23;20164;-90
2021/11/16 02:29:00;;;;;;;167.00;24.27;;;;;;;;;;6183423;23;20176;-92
2021/11/16 02:32:07;;;;;;;92.90;23.47;;;;;;;;;;6185273;23;20171;-89
2021/11/16 02:35:13;;;;;;;128.13;23.87;;;;;;;;;;6166298;23;20520;-89
2021/11/16 02:38:21;;;;;;;102.10;23.10;;;;;;;;;;6182749;23;20171;-90
2021/11/16 02:41:31;;;;;;;108.17;22.83;;;;;;;;;;6184025;23;20670;-90
2021/11/16 02:44:36;;;;;;;102.83;24.13;;;;;;;;;;6184923;23;20176;-91
2021/11/16 02:47:41;;;;;;;90.57;24.47;;;;;;;;;;6184197;23;20183;-91
2021/11/16 02:50:48;;;;;;;95.90;23.53;;;;;;;;;;6183156;23;20241;-91
2021/11/16 02:53:55;;;;;;;65.03;20.83;;;;;;;;;;6196107;23;20195;-90
2021/11/16 02:57:09;;;;;;;88.37;21.47;;;;;;;;;;6200465;23;20208;-90
2021/11/16 03:00:16;;;;;;;96.70;22.57;;;;;;;;;;6200289;23;20281;-93
2021/11/16 03:03:22;;;;;;;94.20;21.33;;;;;;;;;;6199889;23;20176;-90
2021/11/16 03:06:27;;;;;;;60.87;19.47;;;;;;;;;;6199657;23;20171;-91
2021/11/16 03:09:34;;;;;;;105.47;21.77;;;;;;;;;;6199556;23;20167;-89
2021/11/16 03:12:40;;;;;;;79.73;20.37;;;;;;;;;;6198990;23;20231;-91
2021/11/16 03:15:45;;;;;;;89.73;21.00;;;;;;;;;;6200112;23;20191;-91
2021/11/16 03:18:51;;;;;;;76.77;21.93;;;;;;;;;;6200276;23;20178;-93
2021/11/16 03:21:58;;;;;;;90.87;21.17;;;;;;;;;;6200652;23;20297;-91
2021/11/16 03:25:05;;;;;;;85.37;21.37;;;;;;;;;;6199581;23;20176;-89
2021/11/16 03:28:11;;;;;;;90.60;20.33;;;;;;;;;;6199763;23;20179;-90
2021/11/16 03:31:20;;;;;;;69.47;19.10;;;;;;;;;;6200893;23;20171;-90
2021/11/16 03:34:32;;;;;;;62.03;19.10;;;;;;;;;;6200877;23;20159;-89
2021/11/16 03:37:41;;;;;;;102.07;20.13;;;;;;;;;;6201480;23;20188;-89
2021/11/16 03:40:49;;;;;;;63.00;18.20;;;;;;;;;;6201709;23;20199;-92
2021/11/16 03:43:55;;;;;;;76.90;19.63;;;;;;;;;;6201311;23;20216;-90
2021/11/16 03:47:02;;;;;;;55.20;19.57;;;;;;;;;;6201354;23;20231;-91
2021/11/16 03:50:08;;;;;;;58.03;18.83;;;;;;;;;;6202374;23;20219;-91
2021/11/16 03:53:14;;;;;;;48.87;18.60;;;;;;;;;;6201614;23;20351;-90
2021/11/16 03:56:21;;;;;;;55.77;18.27;;;;;;;;;;6201469;23;20228;-88
2021/11/16 03:59:27;;;;;;;42.00;18.47;;;;;;;;;;6200560;23;20239;-91
2021/11/16 04:02:33;;;;;;;43.63;18.90;;;;;;;;;;6200799;23;20204;-91
2021/11/16 04:05:39;;;;;;;51.27;18.37;;;;;;;;;;6200404;23;20180;-89
2021/11/16 04:08:45;;;;;;;61.90;18.80;;;;;;;;;;6200062;23;20223;-91
2021/11/16 04:11:52;;;;;;;57.53;19.93;;;;;;;;;;6199548;23;20627;-89
2021/11/16 04:14:57;;;;;;;54.67;19.47;;;;;;;;;;6201225;23;20205;-92
2021/11/16 04:18:03;;;;;;;44.20;18.23;;;;;;;;;;6201145;23;20487;-88
2021/11/16 04:21:09;;;;;;;56.80;19.47;;;;;;;;;;6202497;23;20163;-90
2021/11/16 04:24:15;;;;;;;216.60;65.00;;;;;;;;;;6201761;23;20196;-91
2021/11/16 04:27:22;;;;;;;47.90;20.77;;;;;;;;;;6200380;23;20287;-88
2021/11/16 04:30:27;;;;;;;53.27;19.47;;;;;;;;;;6201820;23;20163;-90
2021/11/16 04:33:58;;;;;;;50.43;18.47;;;;;;;;;;6201405;23;20176;-93
2021/11/16 04:37:04;;;;;;;56.50;18.80;;;;;;;;;;6200958;23;20290;-93
2021/11/16 04:40:10;;;;;;;48.73;18.90;;;;;;;;;;6200741;23;20171;-91
2021/11/16 04:43:19;;;;;;;55.30;19.83;;;;;;;;;;6201683;23;20240;-90
2021/11/16 04:46:26;;;;;;;67.23;20.43;;;;;;;;;;6202265;23;20611;-89
2021/11/16 04:49:35;;;;;;;52.40;19.57;;;;;;;;;;6201858;23;20172;-92
2021/11/16 04:52:48;;;;;;;55.87;18.43;;;;;;;;;;6211189;23;20198;-91
2021/11/16 04:59:28;;;;;;;51.13;18.90;;;;;;;;;;6218615;23;20194;-93
2021/11/16 04:59:36;;;;;;;50.50;19.27;;;;;;;;;;6213522;23;20178;-90
2021/11/16 05:03:12;;;;;;;47.07;18.43;;;;;;;;;;6212796;23;20227;-90
2021/11/16 05:06:18;;;;;;;53.47;19.67;;;;;;;;;;6213669;23;20171;-89
2021/11/16 05:09:23;;;;;;;58.30;20.63;;;;;;;;;;6214814;23;20170;-90
2021/11/16 05:12:31;;;;;;;43.73;18.17;;;;;;;;;;6214336;23;20658;-90
2021/11/16 05:15:40;;;;;;;45.97;18.90;;;;;;;;;;6215019;23;20210;-89
2021/11/16 05:18:46;;;;;;;46.57;19.63;;;;;;;;;;6215184;23;20167;-90
2021/11/16 05:21:52;;;;;;;45.33;18.70;;;;;;;;;;6213333;23;20191;-89
2021/11/16 05:24:58;;;;;;;42.83;17.70;;;;;;;;;;6213366;23;20231;-89
2021/11/16 05:28:05;;;;;;;50.40;18.07;;;;;;;;;;6211632;23;20179;-88
2021/11/16 05:31:12;;;;;;;54.00;19.93;;;;;;;;;;6213093;23;20635;-89
2021/11/16 05:34:18;;;;;;;46.13;19.03;;;;;;;;;;6214403;23;20707;-91
2021/11/16 05:37:23;;;;;;;49.60;19.93;;;;;;;;;;6214539;23;20215;-91
2021/11/16 05:40:29;;;;;;;43.23;18.43;;;;;;;;;;6215078;23;20166;-90
2021/11/16 05:43:35;;;;;;;52.83;18.63;;;;;;;;;;6214409;23;20170;-91
2021/11/16 05:46:46;;;;;;;46.90;19.77;;;;;;;;;;6214149;23;20190;-90
2021/11/16 05:49:51;;;;;;;54.33;24.63;;;;;;;;;;6215517;23;20220;-91
2021/11/16 05:52:57;;;;;;;45.33;19.40;;;;;;;;;;6215270;23;20199;-91
2021/11/16 05:56:02;;;;;;;47.57;19.83;;;;;;;;;;6214947;23;20167;-90
2021/11/16 05:59:08;;;;;;;46.97;20.77;;;;;;;;;;6214332;23;20172;-93
2021/11/16 06:02:16;;;;;;;53.50;18.90;;;;;;;;;;6212884;23;20499;-92
2021/11/16 06:05:22;;;;;;;44.00;18.70;;;;;;;;;;6219689;23;20185;-90
2021/11/16 06:08:29;;;;;;;35.83;16.70;;;;;;;;;;6215886;23;20167;-89
2021/11/16 06:11:35;;;;;;;40.33;17.13;;;;;;;;;;6214733;23;20238;-90
2021/11/16 06:14:40;;;;;;;35.57;16.57;;;;;;;;;;6215286;23;20175;-89
2021/11/16 06:17:47;;;;;;;39.27;16.90;;;;;;;;;;6216849;23;20190;-89
2021/11/16 06:20:55;;;;;;;44.07;16.87;;;;;;;;;;6215559;23;20175;-90
2021/11/16 06:24:01;;;;;;;39.63;17.13;;;;;;;;;;6214016;23;20625;-90
2021/11/16 06:27:08;;;;;;;38.17;16.20;;;;;;;;;;6214357;23;20206;-90
2021/11/16 06:30:13;;;;;;;42.47;16.53;;;;;;;;;;6215441;23;20199;-90
2021/11/16 06:37:37;;;;;;;44.33;17.03;;;;;;;;;;6233682;23;20234;-89
2021/11/16 06:40:47;;;;;;;42.70;17.40;;;;;;;;;;6214102;23;20171;-89
2021/11/16 06:43:52;;;;;;;47.37;18.33;;;;;;;;;;6214841;23;20219;-90
2021/11/16 06:46:59;;;;;;;43.83;19.13;;;;;;;;;;6213898;23;20167;-91
2021/11/16 06:50:05;;;;;;;44.63;18.97;;;;;;;;;;6213339;23;20175;-91
2021/11/16 06:53:12;;;;;;;48.67;19.00;;;;;;;;;;6211856;23;20630;-90
2021/11/16 06:56:24;;;;;;;51.20;19.40;;;;;;;;;;6211426;23;20163;-90
2021/11/16 06:59:29;;;;;;;49.50;19.40;;;;;;;;;;6214055;23;20195;-92
2021/11/16 07:02:34;;;;;;;44.00;17.13;;;;;;;;;;6213837;23;20220;-91
2021/11/16 07:05:48;;;;;;;48.30;19.23;;;;;;;;;;6216330;23;20175;-89
2021/11/16 07:08:56;;;;;;;41.20;17.87;;;;;;;;;;6213910;23;20278;-90
2021/11/16 07:12:01;;;;;;;48.73;18.83;;;;;;;;;;6215511;23;20675;-89
2021/11/16 07:15:10;;;;;;;44.90;17.87;;;;;;;;;;6216179;23;20580;-90
2021/11/16 07:18:16;;;;;;;58.90;19.27;;;;;;;;;;6217698;23;20497;-90
2021/11/16 07:24:48;;;;;;;57.67;19.93;;;;;;;;;;6215381;23;20250;-89
2021/11/16 07:27:55;;;;;;;56.47;20.97;;;;;;;;;;6216894;23;20240;-91
2021/11/16 07:31:01;;;;;;;67.73;23.50;;;;;;;;;;6215623;23;20226;-90
2021/11/16 07:34:34;;;;;;;61.33;20.80;;;;;;;;;;6214678;23;20190;-89
2021/11/16 07:37:41;;;;;;;52.70;19.43;;;;;;;;;;6214765;23;20198;-89
2021/11/16 07:40:50;;;;;;;42.87;17.97;;;;;;;;;;6215738;23;20211;-90
2021/11/16 07:43:55;;;;;;;48.63;18.70;;;;;;;;;;6213367;23;20276;-91
2021/11/16 07:47:02;;;;;;;50.17;18.83;;;;;;;;;;6213788;23;20310;-89
2021/11/16 07:50:09;;;;;;;55.57;19.47;;;;;;;;;;6214693;23;20606;-91
2021/11/16 07:53:17;;;;;;;53.00;19.73;;;;;;;;;;6213130;23;20190;-91
2021/11/16 07:56:25;;;;;;;42.30;17.50;;;;;;;;;;6217262;23;20179;-91
2021/11/16 07:59:34;;;;;;;48.90;19.03;;;;;;;;;;6215918;23;20166;-90
2021/11/16 08:02:40;;;;;;;43.33;17.27;;;;;;;;;;6218006;23;20175;-89
2021/11/16 08:05:56;;;;;;;43.30;15.90;;;;;;;;;;6217030;23;20202;-91
2021/11/16 08:12:38;;;;;;;36.00;14.77;;;;;;;;;;6217241;23;20171;-90
2021/11/16 08:15:54;;;;;;;44.43;17.07;;;;;;;;;;6219074;23;20171;-89
2021/11/16 08:19:06;;;;;;;48.67;18.50;;;;;;;;;;6215613;23;20175;-91
2021/11/16 08:22:14;;;;;;;38.83;16.33;;;;;;;;;;6215590;23;20178;-90
2021/11/16 08:25:22;;;;;;;41.07;17.83;;;;;;;;;;6217249;23;20158;-90
2021/11/16 08:28:30;;;;;;;47.20;17.73;;;;;;;;;;6215456;23;20598;-91
2021/11/16 08:31:42;;;;;;;45.10;17.80;;;;;;;;;;6216614;23;20171;-89
2021/11/16 08:34:55;;;;;;;41.07;17.23;;;;;;;;;;6214445;23;20247;-88
2021/11/16 08:38:05;;;;;;;42.87;17.13;;;;;;;;;;6214830;23;20210;-90
